Terminal Aerodrome Forecast
Issued by NWS

Home | Current Version | Previous Version | Text Only | Print | Product List | Glossary On
Versions: 1 2 3 4 5 6 7 8 9 10 11 12
000
FTUS46 KMTR 212325
TAFSNS
TAF
KSNS 212325Z 2200/2224 27015G20KT P6SM VCSH SCT050
     FM220200 27007KT P6SM VCSH FEW030 SCT050
     FM220700 30003KT P6SM SCT030 BKN070
     FM222000 27011KT P6SM SCT050=

USA.gov is the U.S. government's official web portal to all federal, state and local government web resources and services.